sensor_id;sensor_type;location;lat;lon;timestamp;temperature;humidity
34726;DHT22;20951;50.818;4.344;2022-12-28T00:01:45;8.00;99.90
34726;DHT22;20951;50.818;4.344;2022-12-28T00:04:13;7.90;99.90
34726;DHT22;20951;50.818;4.344;2022-12-28T00:06:39;7.90;99.90
34726;DHT22;20951;50.818;4.344;2022-12-28T00:09:06;8.00;99.90
34726;DHT22;20951;50.818;4.344;2022-12-28T00:11:40;8.00;99.90
34726;DHT22;20951;50.818;4.344;2022-12-28T00:14:09;7.90;99.90
34726;DHT22;20951;50.818;4.344;2022-12-28T00:16:38;7.90;99.90
34726;DHT22;20951;50.818;4.344;2022-12-28T00:19:15;8.00;99.90
34726;DHT22;20951;50.818;4.344;2022-12-28T00:21:45;8.00;99.90
34726;DHT22;20951;50.818;4.344;2022-12-28T00:24:23;8.00;99.90
34726;DHT22;20951;50.818;4.344;2022-12-28T00:26:58;8.00;99.90
34726;DHT22;20951;50.818;4.344;2022-12-28T00:29:27;8.00;99.90
34726;DHT22;20951;50.818;4.344;2022-12-28T00:31:55;8.00;99.90
34726;DHT22;20951;50.818;4.344;2022-12-28T00:34:21;8.00;99.90
34726;DHT22;20951;50.818;4.344;2022-12-28T00:36:50;8.00;99.90
34726;DHT22;20951;50.818;4.344;2022-12-28T00:39:19;8.10;99.90
34726;DHT22;20951;50.818;4.344;2022-12-28T00:41:46;8.00;99.90
34726;DHT22;20951;50.818;4.344;2022-12-28T00:44:15;8.10;99.90
34726;DHT22;20951;50.818;4.344;2022-12-28T00:46:41;8.20;99.90
34726;DHT22;20951;50.818;4.344;2022-12-28T00:49:07;8.10;99.90
34726;DHT22;20951;50.818;4.344;2022-12-28T00:51:40;8.10;99.90
34726;DHT22;20951;50.818;4.344;2022-12-28T00:54:09;8.10;99.90
34726;DHT22;20951;50.818;4.344;2022-12-28T00:56:35;8.00;99.90
34726;DHT22;20951;50.818;4.344;2022-12-28T00:59:00;8.00;99.90
34726;DHT22;20951;50.818;4.344;2022-12-28T01:01:27;8.10;99.90
34726;DHT22;20951;50.818;4.344;2022-12-28T01:03:57;8.10;99.90
34726;DHT22;20951;50.818;4.344;2022-12-28T01:06:23;8.00;99.90
34726;DHT22;20951;50.818;4.344;2022-12-28T01:08:50;8.10;99.90
34726;DHT22;20951;50.818;4.344;2022-12-28T01:11:29;8.10;99.90
34726;DHT22;20951;50.818;4.344;2022-12-28T01:13:57;8.20;99.90
34726;DHT22;20951;50.818;4.344;2022-12-28T01:16:28;8.20;99.90
34726;DHT22;20951;50.818;4.344;2022-12-28T01:18:58;8.30;99.90
34726;DHT22;20951;50.818;4.344;2022-12-28T01:21:27;8.40;99.90
34726;DHT22;20951;50.818;4.344;2022-12-28T01:23:58;8.40;99.90
34726;DHT22;20951;50.818;4.344;2022-12-28T01:26:25;8.40;99.90
34726;DHT22;20951;50.818;4.344;2022-12-28T01:28:54;8.40;99.90
34726;DHT22;20951;50.818;4.344;2022-12-28T01:31:20;8.40;99.90
34726;DHT22;20951;50.818;4.344;2022-12-28T01:33:47;8.50;99.90
34726;DHT22;20951;50.818;4.344;2022-12-28T01:36:22;8.50;99.90
34726;DHT22;20951;50.818;4.344;2022-12-28T01:38:58;8.60;99.90
34726;DHT22;20951;50.818;4.344;2022-12-28T01:41:25;8.50;99.90
34726;DHT22;20951;50.818;4.344;2022-12-28T01:46:44;8.60;99.90
34726;DHT22;20951;50.818;4.344;2022-12-28T01:49:19;8.50;99.90
34726;DHT22;20951;50.818;4.344;2022-12-28T01:52:11;8.50;99.90
34726;DHT22;20951;50.818;4.344;2022-12-28T01:54:44;8.40;99.90
34726;DHT22;20951;50.818;4.344;2022-12-28T01:57:14;8.40;99.90
34726;DHT22;20951;50.818;4.344;2022-12-28T01:59:44;8.40;99.90
34726;DHT22;20951;50.818;4.344;2022-12-28T02:02:14;8.30;99.90
34726;DHT22;20951;50.818;4.344;2022-12-28T02:04:51;8.40;99.90
34726;DHT22;20951;50.818;4.344;2022-12-28T02:07:48;8.30;99.90
34726;DHT22;20951;50.818;4.344;2022-12-28T02:10:23;8.20;99.90
34726;DHT22;20951;50.818;4.344;2022-12-28T02:12:55;8.20;99.90
34726;DHT22;20951;50.818;4.344;2022-12-28T02:15:28;8.30;99.90
34726;DHT22;20951;50.818;4.344;2022-12-28T02:17:55;8.30;99.90
34726;DHT22;20951;50.818;4.344;2022-12-28T02:20:24;8.40;99.90
34726;DHT22;20951;50.818;4.344;2022-12-28T02:26:00;8.40;99.90
34726;DHT22;20951;50.818;4.344;2022-12-28T02:29:03;8.40;99.90
34726;DHT22;20951;50.818;4.344;2022-12-28T02:31:57;8.50;99.90
34726;DHT22;20951;50.818;4.344;2022-12-28T02:34:46;8.50;99.90
34726;DHT22;20951;50.818;4.344;2022-12-28T02:37:48;8.60;99.90
34726;DHT22;20951;50.818;4.344;2022-12-28T02:40:26;8.70;99.90
34726;DHT22;20951;50.818;4.344;2022-12-28T02:42:56;8.60;99.90
34726;DHT22;20951;50.818;4.344;2022-12-28T02:48:22;8.60;99.90
34726;DHT22;20951;50.818;4.344;2022-12-28T02:51:22;8.70;99.90
34726;DHT22;20951;50.818;4.344;2022-12-28T03:00:18;8.70;99.90
34726;DHT22;20951;50.818;4.344;2022-12-28T03:03:20;8.80;99.90
34726;DHT22;20951;50.818;4.344;2022-12-28T03:11:18;8.70;99.90
34726;DHT22;20951;50.818;4.344;2022-12-28T03:14:08;8.80;99.90
34726;DHT22;20951;50.818;4.344;2022-12-28T03:16:40;8.80;99.90
34726;DHT22;20951;50.818;4.344;2022-12-28T03:19:36;8.80;99.90
34726;DHT22;20951;50.818;4.344;2022-12-28T03:22:24;8.80;99.90
34726;DHT22;20951;50.818;4.344;2022-12-28T03:25:14;8.90;99.90
34726;DHT22;20951;50.818;4.344;2022-12-28T03:28:01;9.00;99.90
34726;DHT22;20951;50.818;4.344;2022-12-28T03:30:51;9.00;99.90
34726;DHT22;20951;50.818;4.344;2022-12-28T03:33:54;9.00;99.90
34726;DHT22;20951;50.818;4.344;2022-12-28T03:36:48;9.00;99.90
34726;DHT22;20951;50.818;4.344;2022-12-28T03:42:25;9.10;99.90
34726;DHT22;20951;50.818;4.344;2022-12-28T03:48:33;9.30;99.90
34726;DHT22;20951;50.818;4.344;2022-12-28T03:51:02;9.10;99.90
34726;DHT22;20951;50.818;4.344;2022-12-28T03:53:36;8.90;99.90
34726;DHT22;20951;50.818;4.344;2022-12-28T03:56:20;9.00;99.90
34726;DHT22;20951;50.818;4.344;2022-12-28T03:58:46;8.90;99.90
34726;DHT22;20951;50.818;4.344;2022-12-28T04:01:15;8.90;99.90
34726;DHT22;20951;50.818;4.344;2022-12-28T04:03:41;8.90;99.90
34726;DHT22;20951;50.818;4.344;2022-12-28T04:06:08;9.00;99.90
34726;DHT22;20951;50.818;4.344;2022-12-28T04:08:46;8.90;99.90
34726;DHT22;20951;50.818;4.344;2022-12-28T04:11:12;8.90;99.90
34726;DHT22;20951;50.818;4.344;2022-12-28T04:13:41;8.90;99.90
34726;DHT22;20951;50.818;4.344;2022-12-28T04:16:11;9.00;99.90
34726;DHT22;20951;50.818;4.344;2022-12-28T04:18:38;9.00;99.90
34726;DHT22;20951;50.818;4.344;2022-12-28T04:21:16;9.00;99.90
34726;DHT22;20951;50.818;4.344;2022-12-28T04:23:44;8.90;99.90
34726;DHT22;20951;50.818;4.344;2022-12-28T04:26:14;8.80;99.90
34726;DHT22;20951;50.818;4.344;2022-12-28T04:28:41;8.80;99.90
34726;DHT22;20951;50.818;4.344;2022-12-28T04:31:09;8.70;99.90
34726;DHT22;20951;50.818;4.344;2022-12-28T04:33:37;8.70;99.90
34726;DHT22;20951;50.818;4.344;2022-12-28T04:36:07;8.60;99.90
34726;DHT22;20951;50.818;4.344;2022-12-28T04:38:34;8.70;99.90
34726;DHT22;20951;50.818;4.344;2022-12-28T04:41:00;8.60;99.90
34726;DHT22;20951;50.818;4.344;2022-12-28T04:43:26;8.70;99.90
34726;DHT22;20951;50.818;4.344;2022-12-28T04:46:15;8.70;99.90
34726;DHT22;20951;50.818;4.344;2022-12-28T04:48:41;8.70;99.90
34726;DHT22;20951;50.818;4.344;2022-12-28T04:51:10;8.80;99.90
34726;DHT22;20951;50.818;4.344;2022-12-28T04:53:37;8.70;99.90
34726;DHT22;20951;50.818;4.344;2022-12-28T04:56:06;8.80;99.90
34726;DHT22;20951;50.818;4.344;2022-12-28T04:58:33;8.80;99.90
34726;DHT22;20951;50.818;4.344;2022-12-28T05:01:07;8.80;99.90
34726;DHT22;20951;50.818;4.344;2022-12-28T05:03:36;8.90;99.90
34726;DHT22;20951;50.818;4.344;2022-12-28T05:06:07;9.00;99.90
34726;DHT22;20951;50.818;4.344;2022-12-28T05:08:34;8.90;99.90
34726;DHT22;20951;50.818;4.344;2022-12-28T05:11:06;8.90;99.90
34726;DHT22;20951;50.818;4.344;2022-12-28T05:13:33;9.10;99.90
34726;DHT22;20951;50.818;4.344;2022-12-28T05:16:04;9.10;99.90
34726;DHT22;20951;50.818;4.344;2022-12-28T05:18:38;9.20;99.90
34726;DHT22;20951;50.818;4.344;2022-12-28T05:21:16;9.10;99.90
34726;DHT22;20951;50.818;4.344;2022-12-28T05:23:57;9.20;99.90
34726;DHT22;20951;50.818;4.344;2022-12-28T05:26:25;9.20;99.90
34726;DHT22;20951;50.818;4.344;2022-12-28T05:28:56;9.30;99.90
34726;DHT22;20951;50.818;4.344;2022-12-28T05:31:23;9.30;99.90
34726;DHT22;20951;50.818;4.344;2022-12-28T05:33:50;9.30;99.90
34726;DHT22;20951;50.818;4.344;2022-12-28T05:36:26;9.30;99.90
34726;DHT22;20951;50.818;4.344;2022-12-28T05:38:54;9.40;99.90
34726;DHT22;20951;50.818;4.344;2022-12-28T05:41:25;9.40;99.90
34726;DHT22;20951;50.818;4.344;2022-12-28T05:43:55;9.50;99.90
34726;DHT22;20951;50.818;4.344;2022-12-28T05:46:31;9.50;99.90
34726;DHT22;20951;50.818;4.344;2022-12-28T05:48:59;9.50;99.90
34726;DHT22;20951;50.818;4.344;2022-12-28T05:51:27;9.50;99.90
34726;DHT22;20951;50.818;4.344;2022-12-28T05:53:53;9.60;99.90
34726;DHT22;20951;50.818;4.344;2022-12-28T05:56:30;9.50;99.90
34726;DHT22;20951;50.818;4.344;2022-12-28T05:58:58;9.50;99.90
34726;DHT22;20951;50.818;4.344;2022-12-28T06:01:29;9.50;99.90
34726;DHT22;20951;50.818;4.344;2022-12-28T06:04:00;9.60;99.90
34726;DHT22;20951;50.818;4.344;2022-12-28T06:06:27;9.70;99.90
34726;DHT22;20951;50.818;4.344;2022-12-28T06:09:00;9.60;99.90
34726;DHT22;20951;50.818;4.344;2022-12-28T06:11:33;9.70;99.90
34726;DHT22;20951;50.818;4.344;2022-12-28T06:14:01;9.60;99.90
34726;DHT22;20951;50.818;4.344;2022-12-28T06:16:40;9.60;99.90
34726;DHT22;20951;50.818;4.344;2022-12-28T06:19:09;9.70;99.90
34726;DHT22;20951;50.818;4.344;2022-12-28T06:21:43;9.70;99.90
34726;DHT22;20951;50.818;4.344;2022-12-28T06:24:10;9.80;99.90
34726;DHT22;20951;50.818;4.344;2022-12-28T06:26:37;9.80;99.90
34726;DHT22;20951;50.818;4.344;2022-12-28T06:29:11;9.80;99.90
34726;DHT22;20951;50.818;4.344;2022-12-28T06:31:43;9.80;99.90
34726;DHT22;20951;50.818;4.344;2022-12-28T06:34:12;9.90;99.90
34726;DHT22;20951;50.818;4.344;2022-12-28T06:36:49;9.90;99.90
34726;DHT22;20951;50.818;4.344;2022-12-28T06:39:19;9.90;99.90
34726;DHT22;20951;50.818;4.344;2022-12-28T06:41:45;9.90;99.90
34726;DHT22;20951;50.818;4.344;2022-12-28T06:44:12;10.00;99.90
34726;DHT22;20951;50.818;4.344;2022-12-28T06:46:38;10.00;99.90
34726;DHT22;20951;50.818;4.344;2022-12-28T06:49:04;10.00;99.90
34726;DHT22;20951;50.818;4.344;2022-12-28T06:51:32;9.90;99.90
34726;DHT22;20951;50.818;4.344;2022-12-28T06:54:05;10.00;99.90
34726;DHT22;20951;50.818;4.344;2022-12-28T06:56:33;10.00;99.90
34726;DHT22;20951;50.818;4.344;2022-12-28T06:59:09;10.00;99.90
34726;DHT22;20951;50.818;4.344;2022-12-28T07:01:40;10.00;99.90
34726;DHT22;20951;50.818;4.344;2022-12-28T07:04:09;10.20;99.90
34726;DHT22;20951;50.818;4.344;2022-12-28T07:06:41;10.20;99.90
34726;DHT22;20951;50.818;4.344;2022-12-28T07:09:11;10.20;99.90
34726;DHT22;20951;50.818;4.344;2022-12-28T07:11:50;10.20;99.90
34726;DHT22;20951;50.818;4.344;2022-12-28T07:14:19;10.10;99.90
34726;DHT22;20951;50.818;4.344;2022-12-28T07:16:46;10.10;99.90
34726;DHT22;20951;50.818;4.344;2022-12-28T07:19:14;10.10;99.90
34726;DHT22;20951;50.818;4.344;2022-12-28T07:21:40;10.00;99.90
34726;DHT22;20951;50.818;4.344;2022-12-28T07:24:06;10.10;99.90
34726;DHT22;20951;50.818;4.344;2022-12-28T07:26:34;10.10;99.90
34726;DHT22;20951;50.818;4.344;2022-12-28T07:29:04;10.00;99.90
34726;DHT22;20951;50.818;4.344;2022-12-28T07:31:32;10.10;99.90
34726;DHT22;20951;50.818;4.344;2022-12-28T07:34:02;10.20;99.90
34726;DHT22;20951;50.818;4.344;2022-12-28T07:36:30;10.10;99.90
34726;DHT22;20951;50.818;4.344;2022-12-28T07:39:06;10.00;99.90
34726;DHT22;20951;50.818;4.344;2022-12-28T07:41:33;9.70;99.90
34726;DHT22;20951;50.818;4.344;2022-12-28T07:44:09;9.70;99.90
34726;DHT22;20951;50.818;4.344;2022-12-28T07:46:42;9.70;99.90
34726;DHT22;20951;50.818;4.344;2022-12-28T07:49:10;9.70;99.90
34726;DHT22;20951;50.818;4.344;2022-12-28T07:51:45;9.50;99.90
34726;DHT22;20951;50.818;4.344;2022-12-28T07:54:11;9.50;99.90
34726;DHT22;20951;50.818;4.344;2022-12-28T07:56:40;9.40;99.90
34726;DHT22;20951;50.818;4.344;2022-12-28T07:59:06;9.40;99.90
34726;DHT22;20951;50.818;4.344;2022-12-28T08:01:34;9.40;99.90
34726;DHT22;20951;50.818;4.344;2022-12-28T08:04:12;9.40;99.90
34726;DHT22;20951;50.818;4.344;2022-12-28T08:06:42;9.40;99.90
34726;DHT22;20951;50.818;4.344;2022-12-28T08:09:10;9.40;99.90
34726;DHT22;20951;50.818;4.344;2022-12-28T08:11:40;9.30;99.90
34726;DHT22;20951;50.818;4.344;2022-12-28T08:14:06;9.20;99.90
34726;DHT22;20951;50.818;4.344;2022-12-28T08:16:35;9.00;99.90
34726;DHT22;20951;50.818;4.344;2022-12-28T08:19:09;9.20;99.90
34726;DHT22;20951;50.818;4.344;2022-12-28T08:21:41;9.20;99.90
34726;DHT22;20951;50.818;4.344;2022-12-28T08:24:08;9.30;99.90
34726;DHT22;20951;50.818;4.344;2022-12-28T08:26:50;9.20;99.90
34726;DHT22;20951;50.818;4.344;2022-12-28T08:29:19;9.30;99.90
34726;DHT22;20951;50.818;4.344;2022-12-28T08:31:46;9.10;99.90
34726;DHT22;20951;50.818;4.344;2022-12-28T08:34:17;9.20;99.90
34726;DHT22;20951;50.818;4.344;2022-12-28T08:36:43;9.20;99.90
34726;DHT22;20951;50.818;4.344;2022-12-28T08:39:20;9.20;99.90
34726;DHT22;20951;50.818;4.344;2022-12-28T08:41:50;9.30;99.90
34726;DHT22;20951;50.818;4.344;2022-12-28T08:44:19;9.30;99.90
34726;DHT22;20951;50.818;4.344;2022-12-28T08:46:55;9.20;99.90
34726;DHT22;20951;50.818;4.344;2022-12-28T08:49:23;9.20;99.90
34726;DHT22;20951;50.818;4.344;2022-12-28T08:51:49;9.20;99.90
34726;DHT22;20951;50.818;4.344;2022-12-28T08:54:14;9.20;99.90
34726;DHT22;20951;50.818;4.344;2022-12-28T08:56:42;9.20;99.90
34726;DHT22;20951;50.818;4.344;2022-12-28T08:59:17;9.10;99.90
34726;DHT22;20951;50.818;4.344;2022-12-28T09:01:53;9.10;99.90
34726;DHT22;20951;50.818;4.344;2022-12-28T09:04:20;9.20;99.90
34726;DHT22;20951;50.818;4.344;2022-12-28T09:06:46;9.30;99.90
34726;DHT22;20951;50.818;4.344;2022-12-28T09:09:14;9.20;99.90
34726;DHT22;20951;50.818;4.344;2022-12-28T09:11:41;9.30;99.90
34726;DHT22;20951;50.818;4.344;2022-12-28T09:14:09;9.30;99.90
34726;DHT22;20951;50.818;4.344;2022-12-28T09:16:36;9.20;99.90
34726;DHT22;20951;50.818;4.344;2022-12-28T09:19:06;9.30;99.90
34726;DHT22;20951;50.818;4.344;2022-12-28T09:21:42;9.40;99.90
34726;DHT22;20951;50.818;4.344;2022-12-28T09:24:18;9.40;99.90
34726;DHT22;20951;50.818;4.344;2022-12-28T09:26:47;9.40;99.90
34726;DHT22;20951;50.818;4.344;2022-12-28T09:29:15;9.40;99.90
34726;DHT22;20951;50.818;4.344;2022-12-28T09:31:41;9.50;99.90
34726;DHT22;20951;50.818;4.344;2022-12-28T09:34:12;9.40;99.90
34726;DHT22;20951;50.818;4.344;2022-12-28T09:36:40;9.40;99.90
34726;DHT22;20951;50.818;4.344;2022-12-28T09:39:17;9.40;99.90
34726;DHT22;20951;50.818;4.344;2022-12-28T09:41:53;9.40;99.90
34726;DHT22;20951;50.818;4.344;2022-12-28T09:50:03;9.40;99.90
34726;DHT22;20951;50.818;4.344;2022-12-28T09:52:50;9.40;99.90
34726;DHT22;20951;50.818;4.344;2022-12-28T09:55:27;9.50;99.90
34726;DHT22;20951;50.818;4.344;2022-12-28T09:57:55;9.50;99.90
34726;DHT22;20951;50.818;4.344;2022-12-28T10:00:27;9.40;99.90
34726;DHT22;20951;50.818;4.344;2022-12-28T10:03:01;9.40;99.90
34726;DHT22;20951;50.818;4.344;2022-12-28T10:05:28;9.40;99.90
34726;DHT22;20951;50.818;4.344;2022-12-28T10:08:00;9.40;99.90
34726;DHT22;20951;50.818;4.344;2022-12-28T10:10:39;9.40;99.90
34726;DHT22;20951;50.818;4.344;2022-12-28T10:13:36;9.50;99.90
34726;DHT22;20951;50.818;4.344;2022-12-28T10:16:04;9.50;99.90
34726;DHT22;20951;50.818;4.344;2022-12-28T10:18:31;9.50;99.90
34726;DHT22;20951;50.818;4.344;2022-12-28T10:21:07;9.50;99.90
34726;DHT22;20951;50.818;4.344;2022-12-28T10:23:43;9.60;99.90
34726;DHT22;20951;50.818;4.344;2022-12-28T10:26:15;9.50;99.90
34726;DHT22;20951;50.818;4.344;2022-12-28T10:28:53;9.50;99.90
34726;DHT22;20951;50.818;4.344;2022-12-28T10:31:39;9.60;99.90
34726;DHT22;20951;50.818;4.344;2022-12-28T10:34:19;9.60;99.90
34726;DHT22;20951;50.818;4.344;2022-12-28T10:36:50;9.60;99.90
34726;DHT22;20951;50.818;4.344;2022-12-28T10:39:26;9.60;99.90
34726;DHT22;20951;50.818;4.344;2022-12-28T10:41:54;9.60;99.90
34726;DHT22;20951;50.818;4.344;2022-12-28T10:44:30;9.60;99.90
34726;DHT22;20951;50.818;4.344;2022-12-28T10:47:03;9.60;99.90
34726;DHT22;20951;50.818;4.344;2022-12-28T10:49:37;9.70;99.90
34726;DHT22;20951;50.818;4.344;2022-12-28T10:54:40;9.50;99.90
34726;DHT22;20951;50.818;4.344;2022-12-28T10:57:30;9.50;99.90
34726;DHT22;20951;50.818;4.344;2022-12-28T11:00:20;9.50;99.90
34726;DHT22;20951;50.818;4.344;2022-12-28T11:02:54;9.60;99.90
34726;DHT22;20951;50.818;4.344;2022-12-28T11:05:22;9.70;99.90
34726;DHT22;20951;50.818;4.344;2022-12-28T11:07:50;9.70;99.90
34726;DHT22;20951;50.818;4.344;2022-12-28T11:10:28;9.80;99.90
34726;DHT22;20951;50.818;4.344;2022-12-28T11:13:15;9.80;99.90
34726;DHT22;20951;50.818;4.344;2022-12-28T11:15:43;9.70;99.90
34726;DHT22;20951;50.818;4.344;2022-12-28T11:18:18;9.80;99.90
34726;DHT22;20951;50.818;4.344;2022-12-28T11:20:48;9.90;99.90
34726;DHT22;20951;50.818;4.344;2022-12-28T11:23:18;10.00;99.90
34726;DHT22;20951;50.818;4.344;2022-12-28T11:25:44;9.90;99.90
34726;DHT22;20951;50.818;4.344;2022-12-28T11:28:15;10.00;99.90
34726;DHT22;20951;50.818;4.344;2022-12-28T11:30:44;10.00;99.90
34726;DHT22;20951;50.818;4.344;2022-12-28T11:35:59;10.10;99.90
34726;DHT22;20951;50.818;4.344;2022-12-28T11:41:04;10.20;99.90
34726;DHT22;20951;50.818;4.344;2022-12-28T11:43:37;10.20;99.90
34726;DHT22;20951;50.818;4.344;2022-12-28T11:49:02;10.20;99.90
34726;DHT22;20951;50.818;4.344;2022-12-28T11:51:39;10.20;99.90
34726;DHT22;20951;50.818;4.344;2022-12-28T11:54:34;10.20;99.90
34726;DHT22;20951;50.818;4.344;2022-12-28T11:57:11;10.30;99.90
34726;DHT22;20951;50.818;4.344;2022-12-28T11:59:37;10.30;99.90
34726;DHT22;20951;50.818;4.344;2022-12-28T12:04:34;10.40;99.90
34726;DHT22;20951;50.818;4.344;2022-12-28T12:14:56;10.40;99.90
34726;DHT22;20951;50.818;4.344;2022-12-28T12:17:42;10.40;99.90
34726;DHT22;20951;50.818;4.344;2022-12-28T12:20:25;10.30;99.90
34726;DHT22;20951;50.818;4.344;2022-12-28T12:23:07;10.40;99.90
34726;DHT22;20951;50.818;4.344;2022-12-28T12:25:39;10.30;99.90
34726;DHT22;20951;50.818;4.344;2022-12-28T12:28:14;10.40;99.90
34726;DHT22;20951;50.818;4.344;2022-12-28T12:30:44;10.30;99.90
34726;DHT22;20951;50.818;4.344;2022-12-28T12:33:26;10.40;99.90
34726;DHT22;20951;50.818;4.344;2022-12-28T12:44:20;10.50;99.90
34726;DHT22;20951;50.818;4.344;2022-12-28T12:49:53;10.40;99.90
34726;DHT22;20951;50.818;4.344;2022-12-28T12:52:41;10.40;99.90
34726;DHT22;20951;50.818;4.344;2022-12-28T12:58:23;10.40;99.90
34726;DHT22;20951;50.818;4.344;2022-12-28T13:06:16;10.40;99.90
34726;DHT22;20951;50.818;4.344;2022-12-28T13:08:53;10.50;99.90
34726;DHT22;20951;50.818;4.344;2022-12-28T13:11:20;10.50;99.90
34726;DHT22;20951;50.818;4.344;2022-12-28T13:13:56;10.50;99.90
34726;DHT22;20951;50.818;4.344;2022-12-28T13:16:27;10.60;99.90
34726;DHT22;20951;50.818;4.344;2022-12-28T13:18:59;10.60;99.90
34726;DHT22;20951;50.818;4.344;2022-12-28T13:21:28;10.80;99.90
34726;DHT22;20951;50.818;4.344;2022-12-28T13:23:54;10.80;99.90
34726;DHT22;20951;50.818;4.344;2022-12-28T13:26:30;10.90;99.90
34726;DHT22;20951;50.818;4.344;2022-12-28T13:29:00;11.00;99.90
34726;DHT22;20951;50.818;4.344;2022-12-28T13:31:35;11.00;99.90
34726;DHT22;20951;50.818;4.344;2022-12-28T13:39:31;11.00;99.90
34726;DHT22;20951;50.818;4.344;2022-12-28T13:42:11;11.10;99.90
34726;DHT22;20951;50.818;4.344;2022-12-28T13:44:43;11.00;99.90
34726;DHT22;20951;50.818;4.344;2022-12-28T13:47:18;11.00;99.90
34726;DHT22;20951;50.818;4.344;2022-12-28T13:50:28;10.90;99.90
34726;DHT22;20951;50.818;4.344;2022-12-28T13:52:44;10.80;99.90
34726;DHT22;20951;50.818;4.344;2022-12-28T13:55:24;10.80;99.90
34726;DHT22;20951;50.818;4.344;2022-12-28T13:57:56;10.90;99.90
34726;DHT22;20951;50.818;4.344;2022-12-28T14:00:23;10.90;99.90
34726;DHT22;20951;50.818;4.344;2022-12-28T14:02:57;10.90;99.90
34726;DHT22;20951;50.818;4.344;2022-12-28T14:05:26;11.00;99.90
34726;DHT22;20951;50.818;4.344;2022-12-28T14:07:54;11.00;99.90
34726;DHT22;20951;50.818;4.344;2022-12-28T14:10:21;11.00;99.90
34726;DHT22;20951;50.818;4.344;2022-12-28T14:12:47;11.00;99.90
34726;DHT22;20951;50.818;4.344;2022-12-28T14:15:17;11.10;99.90
34726;DHT22;20951;50.818;4.344;2022-12-28T14:17:56;11.00;99.90
34726;DHT22;20951;50.818;4.344;2022-12-28T14:20:24;11.00;99.90
34726;DHT22;20951;50.818;4.344;2022-12-28T14:22:50;11.00;99.90
34726;DHT22;20951;50.818;4.344;2022-12-28T14:25:18;10.90;99.90
34726;DHT22;20951;50.818;4.344;2022-12-28T14:28:00;10.90;99.90
34726;DHT22;20951;50.818;4.344;2022-12-28T14:30:40;11.00;99.90
34726;DHT22;20951;50.818;4.344;2022-12-28T14:33:23;11.00;99.90
34726;DHT22;20951;50.818;4.344;2022-12-28T14:35:55;10.90;99.90
34726;DHT22;20951;50.818;4.344;2022-12-28T14:38:33;10.90;99.90
34726;DHT22;20951;50.818;4.344;2022-12-28T14:41:01;10.90;99.90
34726;DHT22;20951;50.818;4.344;2022-12-28T14:43:33;10.80;99.90
34726;DHT22;20951;50.818;4.344;2022-12-28T14:46:16;10.80;99.90
34726;DHT22;20951;50.818;4.344;2022-12-28T14:48:42;10.80;99.90
34726;DHT22;20951;50.818;4.344;2022-12-28T14:53:42;10.70;99.90
34726;DHT22;20951;50.818;4.344;2022-12-28T14:56:14;10.70;99.90
34726;DHT22;20951;50.818;4.344;2022-12-28T14:58:51;10.60;99.90
34726;DHT22;20951;50.818;4.344;2022-12-28T15:01:42;10.50;99.90
34726;DHT22;20951;50.818;4.344;2022-12-28T15:04:24;10.50;99.90
34726;DHT22;20951;50.818;4.344;2022-12-28T15:06:50;10.40;99.90
34726;DHT22;20951;50.818;4.344;2022-12-28T15:09:20;10.40;99.90
34726;DHT22;20951;50.818;4.344;2022-12-28T15:11:48;10.30;99.90
34726;DHT22;20951;50.818;4.344;2022-12-28T15:14:14;10.40;99.90
34726;DHT22;20951;50.818;4.344;2022-12-28T15:16:39;10.40;99.90
34726;DHT22;20951;50.818;4.344;2022-12-28T15:19:05;10.40;99.90
34726;DHT22;20951;50.818;4.344;2022-12-28T15:21:31;10.40;99.90
34726;DHT22;20951;50.818;4.344;2022-12-28T15:23:57;10.30;99.90
34726;DHT22;20951;50.818;4.344;2022-12-28T15:26:23;10.40;99.90
34726;DHT22;20951;50.818;4.344;2022-12-28T15:28:51;10.40;99.90
34726;DHT22;20951;50.818;4.344;2022-12-28T15:31:19;10.30;99.90
34726;DHT22;20951;50.818;4.344;2022-12-28T15:33:48;10.30;99.90
34726;DHT22;20951;50.818;4.344;2022-12-28T15:36:16;10.30;99.90
34726;DHT22;20951;50.818;4.344;2022-12-28T15:38:43;10.30;99.90
34726;DHT22;20951;50.818;4.344;2022-12-28T15:41:09;10.20;99.90
34726;DHT22;20951;50.818;4.344;2022-12-28T15:43:53;10.20;99.90
34726;DHT22;20951;50.818;4.344;2022-12-28T15:46:19;10.00;99.90
34726;DHT22;20951;50.818;4.344;2022-12-28T15:48:47;10.10;99.90
34726;DHT22;20951;50.818;4.344;2022-12-28T15:51:25;10.00;99.90
34726;DHT22;20951;50.818;4.344;2022-12-28T15:53:51;9.90;99.90
34726;DHT22;20951;50.818;4.344;2022-12-28T15:56:25;10.00;99.90
34726;DHT22;20951;50.818;4.344;2022-12-28T15:59:02;9.90;99.90
34726;DHT22;20951;50.818;4.344;2022-12-28T16:01:32;9.80;99.90
34726;DHT22;20951;50.818;4.344;2022-12-28T16:04:00;9.80;99.90
34726;DHT22;20951;50.818;4.344;2022-12-28T16:06:28;9.80;99.90
34726;DHT22;20951;50.818;4.344;2022-12-28T16:08:56;9.80;99.90
34726;DHT22;20951;50.818;4.344;2022-12-28T16:11:22;9.80;99.90
34726;DHT22;20951;50.818;4.344;2022-12-28T16:13:55;9.80;99.90
34726;DHT22;20951;50.818;4.344;2022-12-28T16:16:22;9.80;99.90
34726;DHT22;20951;50.818;4.344;2022-12-28T16:18:48;9.80;99.90
34726;DHT22;20951;50.818;4.344;2022-12-28T16:21:15;9.70;99.90
34726;DHT22;20951;50.818;4.344;2022-12-28T16:23:47;9.80;99.90
34726;DHT22;20951;50.818;4.344;2022-12-28T16:26:16;9.80;99.90
34726;DHT22;20951;50.818;4.344;2022-12-28T16:28:42;9.70;99.90
34726;DHT22;20951;50.818;4.344;2022-12-28T16:31:19;9.70;99.90
34726;DHT22;20951;50.818;4.344;2022-12-28T16:33:46;9.70;99.90
34726;DHT22;20951;50.818;4.344;2022-12-28T16:36:13;9.60;99.90
34726;DHT22;20951;50.818;4.344;2022-12-28T16:38:40;9.60;99.90
34726;DHT22;20951;50.818;4.344;2022-12-28T16:41:09;9.70;99.90
34726;DHT22;20951;50.818;4.344;2022-12-28T16:43:36;9.60;99.90
34726;DHT22;20951;50.818;4.344;2022-12-28T16:46:07;9.50;99.90
34726;DHT22;20951;50.818;4.344;2022-12-28T16:48:35;9.60;99.90
34726;DHT22;20951;50.818;4.344;2022-12-28T16:51:01;9.60;99.90
34726;DHT22;20951;50.818;4.344;2022-12-28T16:53:27;9.60;99.90
34726;DHT22;20951;50.818;4.344;2022-12-28T16:55:53;9.50;99.90
34726;DHT22;20951;50.818;4.344;2022-12-28T16:58:19;9.50;99.90
34726;DHT22;20951;50.818;4.344;2022-12-28T17:00:45;9.50;99.90
34726;DHT22;20951;50.818;4.344;2022-12-28T17:03:11;9.50;99.90
34726;DHT22;20951;50.818;4.344;2022-12-28T17:05:37;9.50;99.90
34726;DHT22;20951;50.818;4.344;2022-12-28T17:08:04;9.50;99.90
34726;DHT22;20951;50.818;4.344;2022-12-28T17:10:42;9.50;99.90
34726;DHT22;20951;50.818;4.344;2022-12-28T17:13:08;9.60;99.90
34726;DHT22;20951;50.818;4.344;2022-12-28T17:15:36;9.60;99.90
34726;DHT22;20951;50.818;4.344;2022-12-28T17:18:02;9.70;99.90
34726;DHT22;20951;50.818;4.344;2022-12-28T17:20:28;9.70;99.90
34726;DHT22;20951;50.818;4.344;2022-12-28T17:22:54;9.60;99.90
34726;DHT22;20951;50.818;4.344;2022-12-28T17:25:21;9.60;99.90
34726;DHT22;20951;50.818;4.344;2022-12-28T17:27:46;9.70;99.90
34726;DHT22;20951;50.818;4.344;2022-12-28T17:30:12;9.60;99.90
34726;DHT22;20951;50.818;4.344;2022-12-28T17:32:38;9.70;99.90
34726;DHT22;20951;50.818;4.344;2022-12-28T17:35:04;9.60;99.90